sensor_id;sensor_type;location;lat;lon;timestamp;P1;durP1;ratioP1;P2;durP2;ratioP2
60919;SDS011;59039;52.108;19.942;2023-01-31T00:06:52;20.70;;;9.90;;
60919;SDS011;59039;52.108;19.942;2023-01-31T00:09:18;26.20;;;10.30;;
60919;SDS011;59039;52.108;19.942;2023-01-31T00:11:46;21.70;;;10.40;;
60919;SDS011;59039;52.108;19.942;2023-01-31T00:14:14;24.60;;;10.30;;
60919;SDS011;59039;52.108;19.942;2023-01-31T00:16:47;18.90;;;8.60;;
60919;SDS011;59039;52.108;19.942;2023-01-31T00:19:21;21.10;;;9.70;;
60919;SDS011;59039;52.108;19.942;2023-01-31T00:22:27;17.10;;;7.30;;
60919;SDS011;59039;52.108;19.942;2023-01-31T00:24:52;22.90;;;9.90;;
60919;SDS011;59039;52.108;19.942;2023-01-31T00:27:18;25.70;;;9.70;;
60919;SDS011;59039;52.108;19.942;2023-01-31T00:29:43;16.50;;;8.60;;
60919;SDS011;59039;52.108;19.942;2023-01-31T00:32:35;18.60;;;8.20;;
60919;SDS011;59039;52.108;19.942;2023-01-31T00:35:03;17.30;;;8.50;;
60919;SDS011;59039;52.108;19.942;2023-01-31T00:37:29;16.80;;;8.20;;
60919;SDS011;59039;52.108;19.942;2023-01-31T00:40:04;18.50;;;8.20;;
60919;SDS011;59039;52.108;19.942;2023-01-31T00:42:36;17.10;;;8.50;;
60919;SDS011;59039;52.108;19.942;2023-01-31T00:45:07;13.80;;;6.00;;
60919;SDS011;59039;52.108;19.942;2023-01-31T00:47:40;15.30;;;7.00;;
60919;SDS011;59039;52.108;19.942;2023-01-31T00:50:18;18.10;;;6.30;;
60919;SDS011;59039;52.108;19.942;2023-01-31T00:52:43;12.80;;;6.70;;
60919;SDS011;59039;52.108;19.942;2023-01-31T00:55:19;14.80;;;5.30;;
60919;SDS011;59039;52.108;19.942;2023-01-31T00:58:12;12.10;;;4.80;;
60919;SDS011;59039;52.108;19.942;2023-01-31T01:01:04;8.40;;;4.50;;
60919;SDS011;59039;52.108;19.942;2023-01-31T01:03:34;16.50;;;4.80;;
60919;SDS011;59039;52.108;19.942;2023-01-31T01:06:09;14.70;;;5.20;;
60919;SDS011;59039;52.108;19.942;2023-01-31T01:11:16;11.80;;;4.90;;
60919;SDS011;59039;52.108;19.942;2023-01-31T01:13:47;18.20;;;5.40;;
60919;SDS011;59039;52.108;19.942;2023-01-31T01:16:14;15.10;;;5.20;;
60919;SDS011;59039;52.108;19.942;2023-01-31T01:18:42;14.20;;;5.70;;
60919;SDS011;59039;52.108;19.942;2023-01-31T01:21:09;15.40;;;5.80;;
60919;SDS011;59039;52.108;19.942;2023-01-31T01:23:40;15.10;;;5.50;;
60919;SDS011;59039;52.108;19.942;2023-01-31T01:26:17;12.90;;;5.90;;
60919;SDS011;59039;52.108;19.942;2023-01-31T01:28:54;19.60;;;7.40;;
60919;SDS011;59039;52.108;19.942;2023-01-31T01:31:23;19.40;;;5.80;;
60919;SDS011;59039;52.108;19.942;2023-01-31T01:33:52;14.30;;;6.40;;
60919;SDS011;59039;52.108;19.942;2023-01-31T01:36:17;16.60;;;6.20;;
60919;SDS011;59039;52.108;19.942;2023-01-31T01:38:48;17.00;;;6.00;;
60919;SDS011;59039;52.108;19.942;2023-01-31T01:41:22;18.50;;;6.10;;
60919;SDS011;59039;52.108;19.942;2023-01-31T01:46:54;22.20;;;5.50;;
60919;SDS011;59039;52.108;19.942;2023-01-31T01:49:27;14.20;;;6.10;;
60919;SDS011;59039;52.108;19.942;2023-01-31T01:52:14;19.10;;;6.20;;
60919;SDS011;59039;52.108;19.942;2023-01-31T01:54:47;15.90;;;6.60;;
60919;SDS011;59039;52.108;19.942;2023-01-31T01:57:31;21.80;;;6.40;;
60919;SDS011;59039;52.108;19.942;2023-01-31T02:00:21;15.70;;;5.30;;
60919;SDS011;59039;52.108;19.942;2023-01-31T02:02:58;15.30;;;5.00;;
60919;SDS011;59039;52.108;19.942;2023-01-31T02:05:34;14.90;;;5.50;;
60919;SDS011;59039;52.108;19.942;2023-01-31T02:08:03;17.20;;;5.30;;
60919;SDS011;59039;52.108;19.942;2023-01-31T02:13:31;13.40;;;4.70;;
60919;SDS011;59039;52.108;19.942;2023-01-31T02:15:58;23.30;;;5.90;;
60919;SDS011;59039;52.108;19.942;2023-01-31T02:18:32;22.00;;;6.40;;
60919;SDS011;59039;52.108;19.942;2023-01-31T02:26:54;20.40;;;4.10;;
60919;SDS011;59039;52.108;19.942;2023-01-31T02:29:52;13.20;;;4.40;;
60919;SDS011;59039;52.108;19.942;2023-01-31T02:35:59;16.60;;;5.00;;
60919;SDS011;59039;52.108;19.942;2023-01-31T02:38:58;11.50;;;3.20;;
60919;SDS011;59039;52.108;19.942;2023-01-31T02:44:35;11.80;;;4.30;;
60919;SDS011;59039;52.108;19.942;2023-01-31T02:50:26;20.50;;;4.50;;
60919;SDS011;59039;52.108;19.942;2023-01-31T02:53:04;19.20;;;4.40;;
60919;SDS011;59039;52.108;19.942;2023-01-31T02:55:56;19.90;;;4.80;;
60919;SDS011;59039;52.108;19.942;2023-01-31T02:58:27;18.30;;;3.90;;
60919;SDS011;59039;52.108;19.942;2023-01-31T03:01:01;18.50;;;4.20;;
60919;SDS011;59039;52.108;19.942;2023-01-31T03:03:29;14.70;;;4.20;;
60919;SDS011;59039;52.108;19.942;2023-01-31T03:09:17;12.40;;;3.20;;
60919;SDS011;59039;52.108;19.942;2023-01-31T03:14:55;17.90;;;3.70;;
60919;SDS011;59039;52.108;19.942;2023-01-31T03:20:45;11.30;;;3.60;;
60919;SDS011;59039;52.108;19.942;2023-01-31T03:23:33;15.30;;;3.90;;
60919;SDS011;59039;52.108;19.942;2023-01-31T03:26:03;20.00;;;4.40;;
60919;SDS011;59039;52.108;19.942;2023-01-31T03:28:42;14.00;;;3.90;;
60919;SDS011;59039;52.108;19.942;2023-01-31T03:31:10;18.80;;;5.00;;
60919;SDS011;59039;52.108;19.942;2023-01-31T03:34:04;13.40;;;4.40;;
60919;SDS011;59039;52.108;19.942;2023-01-31T03:39:16;16.50;;;4.20;;
60919;SDS011;59039;52.108;19.942;2023-01-31T03:42:07;14.50;;;5.10;;
60919;SDS011;59039;52.108;19.942;2023-01-31T03:50:30;15.20;;;4.10;;
60919;SDS011;59039;52.108;19.942;2023-01-31T03:53:20;9.00;;;3.30;;
60919;SDS011;59039;52.108;19.942;2023-01-31T03:58:23;10.70;;;3.30;;
60919;SDS011;59039;52.108;19.942;2023-01-31T04:00:57;20.60;;;4.10;;
60919;SDS011;59039;52.108;19.942;2023-01-31T04:06:11;13.50;;;3.20;;
60919;SDS011;59039;52.108;19.942;2023-01-31T04:08:48;12.90;;;3.90;;
60919;SDS011;59039;52.108;19.942;2023-01-31T04:11:18;16.80;;;3.40;;
60919;SDS011;59039;52.108;19.942;2023-01-31T04:13:45;13.30;;;4.10;;
60919;SDS011;59039;52.108;19.942;2023-01-31T04:16:35;15.40;;;4.10;;
60919;SDS011;59039;52.108;19.942;2023-01-31T04:18:59;21.10;;;3.90;;
60919;SDS011;59039;52.108;19.942;2023-01-31T04:21:34;15.00;;;4.70;;
60919;SDS011;59039;52.108;19.942;2023-01-31T04:24:00;13.40;;;3.30;;
60919;SDS011;59039;52.108;19.942;2023-01-31T04:26:46;12.80;;;3.60;;
60919;SDS011;59039;52.108;19.942;2023-01-31T04:29:11;20.90;;;4.20;;
60919;SDS011;59039;52.108;19.942;2023-01-31T04:31:39;22.10;;;3.60;;
60919;SDS011;59039;52.108;19.942;2023-01-31T04:34:05;16.80;;;4.40;;
60919;SDS011;59039;52.108;19.942;2023-01-31T04:39:40;14.10;;;3.40;;
60919;SDS011;59039;52.108;19.942;2023-01-31T04:42:05;15.60;;;4.10;;
60919;SDS011;59039;52.108;19.942;2023-01-31T04:44:33;12.70;;;3.40;;
60919;SDS011;59039;52.108;19.942;2023-01-31T04:47:21;16.60;;;5.00;;
60919;SDS011;59039;52.108;19.942;2023-01-31T04:49:46;16.80;;;4.20;;
60919;SDS011;59039;52.108;19.942;2023-01-31T04:52:14;12.60;;;4.80;;
60919;SDS011;59039;52.108;19.942;2023-01-31T04:54:42;13.90;;;4.00;;
60919;SDS011;59039;52.108;19.942;2023-01-31T04:57:08;19.90;;;3.60;;
60919;SDS011;59039;52.108;19.942;2023-01-31T04:59:33;18.30;;;4.30;;
60919;SDS011;59039;52.108;19.942;2023-01-31T05:01:59;15.60;;;3.90;;
60919;SDS011;59039;52.108;19.942;2023-01-31T05:04:35;15.20;;;3.90;;
60919;SDS011;59039;52.108;19.942;2023-01-31T05:07:00;12.20;;;3.50;;
60919;SDS011;59039;52.108;19.942;2023-01-31T05:09:26;12.10;;;4.30;;
60919;SDS011;59039;52.108;19.942;2023-01-31T05:11:58;19.80;;;4.10;;
60919;SDS011;59039;52.108;19.942;2023-01-31T05:14:24;15.80;;;3.60;;
60919;SDS011;59039;52.108;19.942;2023-01-31T05:16:55;19.90;;;4.20;;
60919;SDS011;59039;52.108;19.942;2023-01-31T05:19:21;13.50;;;3.90;;
60919;SDS011;59039;52.108;19.942;2023-01-31T05:21:46;12.90;;;3.30;;
60919;SDS011;59039;52.108;19.942;2023-01-31T05:24:12;17.50;;;4.10;;
60919;SDS011;59039;52.108;19.942;2023-01-31T05:26:50;20.00;;;4.60;;
60919;SDS011;59039;52.108;19.942;2023-01-31T05:29:21;20.00;;;5.30;;
60919;SDS011;59039;52.108;19.942;2023-01-31T05:31:53;20.20;;;5.50;;
60919;SDS011;59039;52.108;19.942;2023-01-31T05:34:24;17.20;;;5.30;;
60919;SDS011;59039;52.108;19.942;2023-01-31T05:36:50;17.30;;;5.40;;
60919;SDS011;59039;52.108;19.942;2023-01-31T05:39:17;21.60;;;4.90;;
60919;SDS011;59039;52.108;19.942;2023-01-31T05:41:42;21.50;;;8.10;;
60919;SDS011;59039;52.108;19.942;2023-01-31T05:44:08;18.80;;;5.30;;
60919;SDS011;59039;52.108;19.942;2023-01-31T05:46:36;16.20;;;6.00;;
60919;SDS011;59039;52.108;19.942;2023-01-31T05:49:01;17.50;;;6.80;;
60919;SDS011;59039;52.108;19.942;2023-01-31T05:51:30;21.30;;;5.70;;
60919;SDS011;59039;52.108;19.942;2023-01-31T05:53:58;19.20;;;5.50;;
60919;SDS011;59039;52.108;19.942;2023-01-31T05:56:24;25.00;;;7.60;;
60919;SDS011;59039;52.108;19.942;2023-01-31T05:58:54;19.30;;;5.40;;
60919;SDS011;59039;52.108;19.942;2023-01-31T06:01:30;10.10;;;4.10;;
60919;SDS011;59039;52.108;19.942;2023-01-31T06:03:55;10.80;;;4.80;;
60919;SDS011;59039;52.108;19.942;2023-01-31T06:06:20;13.90;;;5.50;;
60919;SDS011;59039;52.108;19.942;2023-01-31T06:08:46;15.90;;;5.30;;
60919;SDS011;59039;52.108;19.942;2023-01-31T06:11:12;17.10;;;5.10;;
60919;SDS011;59039;52.108;19.942;2023-01-31T06:13:41;16.40;;;5.50;;
60919;SDS011;59039;52.108;19.942;2023-01-31T06:16:07;24.40;;;5.60;;
60919;SDS011;59039;52.108;19.942;2023-01-31T06:18:36;17.80;;;5.00;;
60919;SDS011;59039;52.108;19.942;2023-01-31T06:21:02;15.80;;;5.40;;
60919;SDS011;59039;52.108;19.942;2023-01-31T06:23:30;17.50;;;6.30;;
60919;SDS011;59039;52.108;19.942;2023-01-31T06:25:56;14.40;;;5.00;;
60919;SDS011;59039;52.108;19.942;2023-01-31T06:28:21;19.50;;;4.40;;
60919;SDS011;59039;52.108;19.942;2023-01-31T06:30:47;19.90;;;4.70;;
60919;SDS011;59039;52.108;19.942;2023-01-31T06:33:13;22.70;;;6.10;;
60919;SDS011;59039;52.108;19.942;2023-01-31T06:41:21;16.80;;;4.90;;
60919;SDS011;59039;52.108;19.942;2023-01-31T06:43:46;11.70;;;4.00;;
60919;SDS011;59039;52.108;19.942;2023-01-31T06:46:15;10.80;;;4.40;;
60919;SDS011;59039;52.108;19.942;2023-01-31T06:48:43;16.70;;;4.50;;
60919;SDS011;59039;52.108;19.942;2023-01-31T06:51:11;17.20;;;5.00;;
60919;SDS011;59039;52.108;19.942;2023-01-31T06:53:40;14.00;;;4.90;;
60919;SDS011;59039;52.108;19.942;2023-01-31T06:56:06;12.40;;;4.60;;
60919;SDS011;59039;52.108;19.942;2023-01-31T06:58:32;15.00;;;5.10;;
60919;SDS011;59039;52.108;19.942;2023-01-31T07:01:03;19.30;;;6.30;;
60919;SDS011;59039;52.108;19.942;2023-01-31T07:03:58;13.50;;;4.90;;
60919;SDS011;59039;52.108;19.942;2023-01-31T07:09:32;13.80;;;4.90;;
60919;SDS011;59039;52.108;19.942;2023-01-31T07:12:15;14.50;;;4.70;;
60919;SDS011;59039;52.108;19.942;2023-01-31T07:15:07;14.50;;;4.30;;
60919;SDS011;59039;52.108;19.942;2023-01-31T07:17:36;21.70;;;4.90;;
60919;SDS011;59039;52.108;19.942;2023-01-31T07:20:13;16.30;;;4.70;;
60919;SDS011;59039;52.108;19.942;2023-01-31T07:22:41;11.70;;;4.70;;
60919;SDS011;59039;52.108;19.942;2023-01-31T07:25:09;15.50;;;6.00;;
60919;SDS011;59039;52.108;19.942;2023-01-31T07:27:38;18.00;;;4.90;;
60919;SDS011;59039;52.108;19.942;2023-01-31T07:30:23;16.30;;;5.10;;
60919;SDS011;59039;52.108;19.942;2023-01-31T07:32:49;17.00;;;4.90;;
60919;SDS011;59039;52.108;19.942;2023-01-31T07:37:56;28.30;;;8.10;;
60919;SDS011;59039;52.108;19.942;2023-01-31T07:40:44;19.90;;;6.50;;
60919;SDS011;59039;52.108;19.942;2023-01-31T07:43:10;13.20;;;5.60;;
60919;SDS011;59039;52.108;19.942;2023-01-31T07:45:35;15.00;;;5.00;;
60919;SDS011;59039;52.108;19.942;2023-01-31T07:48:01;20.50;;;5.60;;
60919;SDS011;59039;52.108;19.942;2023-01-31T07:50:29;14.70;;;4.50;;
60919;SDS011;59039;52.108;19.942;2023-01-31T07:52:56;16.40;;;5.00;;
60919;SDS011;59039;52.108;19.942;2023-01-31T07:55:25;15.60;;;4.80;;
60919;SDS011;59039;52.108;19.942;2023-01-31T07:57:51;11.30;;;4.00;;
60919;SDS011;59039;52.108;19.942;2023-01-31T08:00:19;18.80;;;6.50;;
60919;SDS011;59039;52.108;19.942;2023-01-31T08:02:47;17.00;;;6.10;;
60919;SDS011;59039;52.108;19.942;2023-01-31T08:05:12;18.60;;;6.20;;
60919;SDS011;59039;52.108;19.942;2023-01-31T08:07:38;19.50;;;6.80;;
60919;SDS011;59039;52.108;19.942;2023-01-31T08:10:06;15.10;;;5.10;;
60919;SDS011;59039;52.108;19.942;2023-01-31T08:12:35;23.50;;;6.80;;
60919;SDS011;59039;52.108;19.942;2023-01-31T08:15:00;20.40;;;7.30;;
60919;SDS011;59039;52.108;19.942;2023-01-31T08:17:35;23.30;;;7.10;;
60919;SDS011;59039;52.108;19.942;2023-01-31T08:20:06;30.30;;;11.00;;
60919;SDS011;59039;52.108;19.942;2023-01-31T08:22:32;33.60;;;10.20;;
60919;SDS011;59039;52.108;19.942;2023-01-31T08:24:57;39.50;;;10.10;;
60919;SDS011;59039;52.108;19.942;2023-01-31T08:27:25;48.50;;;13.30;;
60919;SDS011;59039;52.108;19.942;2023-01-31T08:29:51;28.30;;;8.90;;
60919;SDS011;59039;52.108;19.942;2023-01-31T08:32:16;24.80;;;8.90;;
60919;SDS011;59039;52.108;19.942;2023-01-31T08:34:44;31.80;;;9.30;;
60919;SDS011;59039;52.108;19.942;2023-01-31T08:37:17;19.20;;;7.00;;
60919;SDS011;59039;52.108;19.942;2023-01-31T08:39:55;17.30;;;6.60;;
60919;SDS011;59039;52.108;19.942;2023-01-31T08:42:28;17.40;;;6.50;;
60919;SDS011;59039;52.108;19.942;2023-01-31T08:44:58;19.70;;;6.20;;
60919;SDS011;59039;52.108;19.942;2023-01-31T08:47:24;16.70;;;5.70;;
60919;SDS011;59039;52.108;19.942;2023-01-31T08:49:49;12.50;;;4.80;;
60919;SDS011;59039;52.108;19.942;2023-01-31T08:52:14;16.90;;;5.30;;
60919;SDS011;59039;52.108;19.942;2023-01-31T08:54:45;12.80;;;4.30;;
60919;SDS011;59039;52.108;19.942;2023-01-31T08:57:11;19.70;;;6.00;;
60919;SDS011;59039;52.108;19.942;2023-01-31T08:59:58;13.70;;;4.40;;
60919;SDS011;59039;52.108;19.942;2023-01-31T09:02:25;13.40;;;5.50;;
60919;SDS011;59039;52.108;19.942;2023-01-31T09:04:50;16.60;;;5.40;;
60919;SDS011;59039;52.108;19.942;2023-01-31T09:07:19;13.30;;;5.20;;
60919;SDS011;59039;52.108;19.942;2023-01-31T09:09:44;15.60;;;5.00;;
60919;SDS011;59039;52.108;19.942;2023-01-31T09:12:13;14.30;;;5.60;;
60919;SDS011;59039;52.108;19.942;2023-01-31T09:14:41;14.90;;;5.80;;
60919;SDS011;59039;52.108;19.942;2023-01-31T09:17:06;15.30;;;4.90;;
60919;SDS011;59039;52.108;19.942;2023-01-31T09:19:32;22.60;;;5.60;;
60919;SDS011;59039;52.108;19.942;2023-01-31T09:22:00;19.20;;;6.10;;
60919;SDS011;59039;52.108;19.942;2023-01-31T09:24:28;17.40;;;4.90;;
60919;SDS011;59039;52.108;19.942;2023-01-31T09:26:59;12.10;;;4.90;;
60919;SDS011;59039;52.108;19.942;2023-01-31T09:29:38;16.80;;;6.00;;
60919;SDS011;59039;52.108;19.942;2023-01-31T09:32:26;15.80;;;5.10;;
60919;SDS011;59039;52.108;19.942;2023-01-31T09:34:54;16.00;;;5.20;;
60919;SDS011;59039;52.108;19.942;2023-01-31T09:37:20;11.40;;;5.00;;
60919;SDS011;59039;52.108;19.942;2023-01-31T09:39:48;15.50;;;5.20;;
60919;SDS011;59039;52.108;19.942;2023-01-31T09:42:30;19.90;;;5.10;;
60919;SDS011;59039;52.108;19.942;2023-01-31T09:45:49;20.30;;;5.60;;
60919;SDS011;59039;52.108;19.942;2023-01-31T09:48:17;19.10;;;5.90;;
60919;SDS011;59039;52.108;19.942;2023-01-31T09:53:37;20.30;;;5.90;;
60919;SDS011;59039;52.108;19.942;2023-01-31T09:59:22;13.70;;;5.20;;
60919;SDS011;59039;52.108;19.942;2023-01-31T10:10:50;22.60;;;7.10;;
60919;SDS011;59039;52.108;19.942;2023-01-31T10:16:35;16.20;;;5.10;;
60919;SDS011;59039;52.108;19.942;2023-01-31T10:19:20;24.80;;;7.60;;
60919;SDS011;59039;52.108;19.942;2023-01-31T10:22:07;21.10;;;7.30;;
60919;SDS011;59039;52.108;19.942;2023-01-31T10:30:54;18.50;;;6.40;;
60919;SDS011;59039;52.108;19.942;2023-01-31T10:36:08;20.70;;;5.90;;
60919;SDS011;59039;52.108;19.942;2023-01-31T10:47:18;18.00;;;5.30;;
60919;SDS011;59039;52.108;19.942;2023-01-31T10:49:50;13.90;;;4.00;;
60919;SDS011;59039;52.108;19.942;2023-01-31T10:57:58;14.90;;;4.60;;
60919;SDS011;59039;52.108;19.942;2023-01-31T11:00:43;10.90;;;3.80;;
60919;SDS011;59039;52.108;19.942;2023-01-31T11:03:19;11.80;;;4.20;;
60919;SDS011;59039;52.108;19.942;2023-01-31T11:05:51;10.00;;;3.10;;
60919;SDS011;59039;52.108;19.942;2023-01-31T11:08:47;13.20;;;3.70;;
60919;SDS011;59039;52.108;19.942;2023-01-31T11:11:20;6.60;;;3.20;;
60919;SDS011;59039;52.108;19.942;2023-01-31T11:16:42;7.40;;;3.30;;
60919;SDS011;59039;52.108;19.942;2023-01-31T11:22:02;10.90;;;3.70;;
60919;SDS011;59039;52.108;19.942;2023-01-31T11:24:29;12.10;;;4.00;;
60919;SDS011;59039;52.108;19.942;2023-01-31T11:29:37;10.00;;;3.70;;
60919;SDS011;59039;52.108;19.942;2023-01-31T11:40:39;10.70;;;4.00;;
60919;SDS011;59039;52.108;19.942;2023-01-31T11:43:22;8.20;;;3.60;;
60919;SDS011;59039;52.108;19.942;2023-01-31T11:45:58;12.70;;;5.10;;
60919;SDS011;59039;52.108;19.942;2023-01-31T11:48:43;12.60;;;4.10;;
60919;SDS011;59039;52.108;19.942;2023-01-31T11:51:10;13.70;;;4.50;;
60919;SDS011;59039;52.108;19.942;2023-01-31T11:53:57;11.40;;;4.40;;
60919;SDS011;59039;52.108;19.942;2023-01-31T11:56:26;11.10;;;4.20;;
60919;SDS011;59039;52.108;19.942;2023-01-31T11:59:18;11.80;;;4.40;;
60919;SDS011;59039;52.108;19.942;2023-01-31T12:02:24;12.10;;;4.10;;
60919;SDS011;59039;52.108;19.942;2023-01-31T12:04:54;11.40;;;4.00;;
60919;SDS011;59039;52.108;19.942;2023-01-31T12:07:39;13.20;;;4.10;;
60919;SDS011;59039;52.108;19.942;2023-01-31T12:12:59;18.70;;;4.80;;
60919;SDS011;59039;52.108;19.942;2023-01-31T12:15:27;11.40;;;5.40;;
60919;SDS011;59039;52.108;19.942;2023-01-31T12:18:07;15.70;;;4.80;;
60919;SDS011;59039;52.108;19.942;2023-01-31T12:20:44;15.80;;;5.90;;
60919;SDS011;59039;52.108;19.942;2023-01-31T12:23:30;14.80;;;5.20;;
60919;SDS011;59039;52.108;19.942;2023-01-31T12:35:16;19.40;;;6.50;;
60919;SDS011;59039;52.108;19.942;2023-01-31T12:55:58;20.60;;;6.30;;
60919;SDS011;59039;52.108;19.942;2023-01-31T13:08:08;30.20;;;11.20;;
60919;SDS011;59039;52.108;19.942;2023-01-31T13:10:59;27.10;;;10.70;;
60919;SDS011;59039;52.108;19.942;2023-01-31T13:13:37;26.00;;;11.30;;
60919;SDS011;59039;52.108;19.942;2023-01-31T13:16:28;28.10;;;11.40;;
60919;SDS011;59039;52.108;19.942;2023-01-31T13:19:57;34.30;;;13.20;;
60919;SDS011;59039;52.108;19.942;2023-01-31T13:22:41;31.80;;;11.60;;
60919;SDS011;59039;52.108;19.942;2023-01-31T13:25:15;18.40;;;7.40;;
60919;SDS011;59039;52.108;19.942;2023-01-31T13:28:11;24.30;;;8.80;;
60919;SDS011;59039;52.108;19.942;2023-01-31T13:30:39;20.20;;;6.60;;
60919;SDS011;59039;52.108;19.942;2023-01-31T13:33:22;15.70;;;6.90;;
60919;SDS011;59039;52.108;19.942;2023-01-31T13:36:15;19.60;;;8.40;;
60919;SDS011;59039;52.108;19.942;2023-01-31T13:38:42;28.40;;;9.80;;
60919;SDS011;59039;52.108;19.942;2023-01-31T13:41:17;27.60;;;9.40;;
60919;SDS011;59039;52.108;19.942;2023-01-31T13:44:04;16.60;;;6.10;;
60919;SDS011;59039;52.108;19.942;2023-01-31T13:49:22;17.50;;;6.30;;
60919;SDS011;59039;52.108;19.942;2023-01-31T13:51:54;26.80;;;7.00;;
60919;SDS011;59039;52.108;19.942;2023-01-31T13:57:04;17.90;;;6.10;;
60919;SDS011;59039;52.108;19.942;2023-01-31T13:59:35;23.50;;;7.10;;
60919;SDS011;59039;52.108;19.942;2023-01-31T14:02:14;26.40;;;9.20;;
60919;SDS011;59039;52.108;19.942;2023-01-31T14:04:42;29.80;;;10.50;;
60919;SDS011;59039;52.108;19.942;2023-01-31T14:07:19;31.70;;;10.20;;
60919;SDS011;59039;52.108;19.942;2023-01-31T14:15:01;37.00;;;11.20;;
60919;SDS011;59039;52.108;19.942;2023-01-31T14:17:57;34.30;;;11.10;;
60919;SDS011;59039;52.108;19.942;2023-01-31T14:20:28;37.40;;;12.60;;
60919;SDS011;59039;52.108;19.942;2023-01-31T14:23:42;38.00;;;12.80;;
60919;SDS011;59039;52.108;19.942;2023-01-31T14:29:13;35.70;;;12.90;;
60919;SDS011;59039;52.108;19.942;2023-01-31T14:31:44;32.50;;;11.20;;
60919;SDS011;59039;52.108;19.942;2023-01-31T14:34:33;36.80;;;12.60;;
60919;SDS011;59039;52.108;19.942;2023-01-31T14:37:16;43.80;;;15.40;;
60919;SDS011;59039;52.108;19.942;2023-01-31T14:43:22;38.80;;;17.90;;
60919;SDS011;59039;52.108;19.942;2023-01-31T14:46:03;55.40;;;22.90;;
60919;SDS011;59039;52.108;19.942;2023-01-31T14:57:21;81.90;;;28.30;;
60919;SDS011;59039;52.108;19.942;2023-01-31T15:00:20;71.60;;;28.80;;
60919;SDS011;59039;52.108;19.942;2023-01-31T15:02:50;84.70;;;34.80;;
60919;SDS011;59039;52.108;19.942;2023-01-31T15:05:46;74.90;;;32.80;;
60919;SDS011;59039;52.108;19.942;2023-01-31T15:16:25;54.00;;;23.00;;
60919;SDS011;59039;52.108;19.942;2023-01-31T15:19:40;53.60;;;22.50;;
60919;SDS011;59039;52.108;19.942;2023-01-31T15:21:47;52.90;;;22.10;;
60919;SDS011;59039;52.108;19.942;2023-01-31T15:30:06;50.80;;;21.60;;
60919;SDS011;59039;52.108;19.942;2023-01-31T15:35:16;55.10;;;22.00;;
60919;SDS011;59039;52.108;19.942;2023-01-31T15:37:57;54.70;;;21.20;;
60919;SDS011;59039;52.108;19.942;2023-01-31T15:40:44;58.90;;;22.20;;
60919;SDS011;59039;52.108;19.942;2023-01-31T15:45:45;49.40;;;20.20;;
60919;SDS011;59039;52.108;19.942;2023-01-31T15:48:12;52.00;;;19.90;;
60919;SDS011;59039;52.108;19.942;2023-01-31T15:50:47;44.70;;;18.40;;
60919;SDS011;59039;52.108;19.942;2023-01-31T15:53:13;46.70;;;20.60;;
60919;SDS011;59039;52.108;19.942;2023-01-31T15:55:40;52.50;;;21.10;;
60919;SDS011;59039;52.108;19.942;2023-01-31T15:58:06;59.80;;;22.60;;
60919;SDS011;59039;52.108;19.942;2023-01-31T16:00:42;55.00;;;19.40;;
60919;SDS011;59039;52.108;19.942;2023-01-31T16:03:13;51.20;;;20.50;;
60919;SDS011;59039;52.108;19.942;2023-01-31T16:05:57;50.80;;;21.20;;
60919;SDS011;59039;52.108;19.942;2023-01-31T16:10:57;41.00;;;16.70;;
60919;SDS011;59039;52.108;19.942;2023-01-31T16:13:23;53.20;;;20.90;;
60919;SDS011;59039;52.108;19.942;2023-01-31T16:15:50;47.20;;;20.80;;
60919;SDS011;59039;52.108;19.942;2023-01-31T16:18:19;39.20;;;17.40;;
60919;SDS011;59039;52.108;19.942;2023-01-31T16:20:48;37.90;;;16.20;;
60919;SDS011;59039;52.108;19.942;2023-01-31T16:23:26;43.10;;;16.70;;
60919;SDS011;59039;52.108;19.942;2023-01-31T16:26:00;42.20;;;18.40;;
60919;SDS011;59039;52.108;19.942;2023-01-31T16:28:52;37.10;;;15.40;;
60919;SDS011;59039;52.108;19.942;2023-01-31T16:31:22;38.60;;;16.20;;
60919;SDS011;59039;52.108;19.942;2023-01-31T16:33:56;39.90;;;14.00;;
60919;SDS011;59039;52.108;19.942;2023-01-31T16:37:27;37.70;;;15.90;;
60919;SDS011;59039;52.108;19.942;2023-01-31T16:39:48;41.20;;;18.40;;
60919;SDS011;59039;52.108;19.942;2023-01-31T16:44:42;37.50;;;15.40;;
60919;SDS011;59039;52.108;19.942;2023-01-31T16:50:39;31.90;;;16.20;;
60919;SDS011;59039;52.108;19.942;2023-01-31T16:53:13;50.00;;;24.00;;
60919;SDS011;59039;52.108;19.942;2023-01-31T17:01:28;43.30;;;20.20;;
60919;SDS011;59039;52.108;19.942;2023-01-31T17:06:44;71.00;;;27.10;;
60919;SDS011;59039;52.108;19.942;2023-01-31T17:09:15;61.30;;;22.00;;
60919;SDS011;59039;52.108;19.942;2023-01-31T17:11:53;43.30;;;17.80;;
60919;SDS011;59039;52.108;19.942;2023-01-31T17:14:19;60.30;;;21.80;;
60919;SDS011;59039;52.108;19.942;2023-01-31T17:16:46;55.60;;;20.80;;
60919;SDS011;59039;52.108;19.942;2023-01-31T17:19:19;64.00;;;25.60;;
60919;SDS011;59039;52.108;19.942;2023-01-31T17:21:45;48.30;;;20.10;;
60919;SDS011;59039;52.108;19.942;2023-01-31T17:24:14;38.40;;;18.80;;
60919;SDS011;59039;52.108;19.942;2023-01-31T17:26:45;48.70;;;20.80;;
60919;SDS011;59039;52.108;19.942;2023-01-31T17:29:11;52.10;;;20.90;;
60919;SDS011;59039;52.108;19.942;2023-01-31T17:31:36;50.70;;;21.40;;
60919;SDS011;59039;52.108;19.942;2023-01-31T17:34:02;58.30;;;20.90;;
60919;SDS011;59039;52.108;19.942;2023-01-31T17:36:27;54.20;;;24.30;;
60919;SDS011;59039;52.108;19.942;2023-01-31T17:38:53;64.50;;;25.70;;
60919;SDS011;59039;52.108;19.942;2023-01-31T17:44:08;57.20;;;23.90;;
60919;SDS011;59039;52.108;19.942;2023-01-31T17:46:37;69.90;;;25.10;;
60919;SDS011;59039;52.108;19.942;2023-01-31T17:49:05;76.10;;;28.10;;
60919;SDS011;59039;52.108;19.942;2023-01-31T17:51:33;67.80;;;26.30;;
60919;SDS011;59039;52.108;19.942;2023-01-31T17:54:01;65.70;;;27.10;;
60919;SDS011;59039;52.108;19.942;2023-01-31T17:56:27;58.60;;;24.80;;
60919;SDS011;59039;52.108;19.942;2023-01-31T17:58:52;60.00;;;26.40;;
60919;SDS011;59039;52.108;19.942;2023-01-31T18:01:21;55.50;;;24.30;;
60919;SDS011;59039;52.108;19.942;2023-01-31T18:03:46;51.70;;;21.90;;
60919;SDS011;59039;52.108;19.942;2023-01-31T18:06:25;53.40;;;21.00;;
60919;SDS011;59039;52.108;19.942;2023-01-31T18:08:51;48.50;;;20.00;;
60919;SDS011;59039;52.108;19.942;2023-01-31T18:11:18;64.60;;;24.10;;
60919;SDS011;59039;52.108;19.942;2023-01-31T18:13:46;59.40;;;23.90;;
60919;SDS011;59039;52.108;19.942;2023-01-31T18:16:13;45.50;;;21.60;;
60919;SDS011;59039;52.108;19.942;2023-01-31T18:21:37;59.20;;;23.00;;
60919;SDS011;59039;52.108;19.942;2023-01-31T18:24:09;60.50;;;26.20;;
60919;SDS011;59039;52.108;19.942;2023-01-31T18:26:44;57.80;;;24.00;;
60919;SDS011;59039;52.108;19.942;2023-01-31T18:29:09;55.40;;;23.00;;
60919;SDS011;59039;52.108;19.942;2023-01-31T18:31:45;50.80;;;20.00;;
60919;SDS011;59039;52.108;19.942;2023-01-31T18:34:14;65.10;;;24.80;;
60919;SDS011;59039;52.108;19.942;2023-01-31T18:36:40;63.60;;;24.70;;
60919;SDS011;59039;52.108;19.942;2023-01-31T18:39:24;47.90;;;21.40;;
60919;SDS011;59039;52.108;19.942;2023-01-31T18:41:49;42.40;;;18.40;;
60919;SDS011;59039;52.108;19.942;2023-01-31T18:44:15;33.30;;;18.30;;
60919;SDS011;59039;52.108;19.942;2023-01-31T18:46:40;43.40;;;20.90;;